Lamont, Kansas
Current Conditions -  °F | °C
As of 5:53 PM on Sunday 25 Jan 2015 (Local Time) from KEMP Reporting Station
Overcast Overcast  
Wind Chill: 33°   Ceiling: 3500
Heat Index: 40°   Visibility: 10mi
Dew Point: 30°   Wind: 12mph
Humidity: 68%   Direction: 360°N
Pressure: 30.08"   Gusts: NA
Location:  38.11°N, 96.03°W
Report Text: KEMP 252353Z AUTO 36010KT 10SM OVC035 04/M01 A3008 RMK AO2 SLP192 T00441011 10078 20044 51031
Loading
Personal Weather Stations






























Interactive Weather Map New forecast layout! Learn more

10-Day Weather Forecast

Advertisements
Track Severe Weather on mobile